Time;durP1;ratioP1;P1;durP2;ratioP2;P2;SDS_P1;SDS_P2;PMS_P1;PMS_P2;Temp;Humidity;BMP_temperature;BMP_pressure;BME280_temperature;BME280_humidity;BME280_pressure;Samples;Min_cycle;Max_cycle;Signal;HPM_P1;HPM_P2
2022/10/29 00:01:44;;;;;;;5.95;1.85;;;13.40;99.90;;;;;;5078615;28;20036;-57
2022/10/29 00:04:09;;;;;;;7.18;1.67;;;13.40;99.90;;;;;;5081745;28;20025;-58
2022/10/29 00:06:35;;;;;;;14.80;3.10;;;13.30;99.90;;;;;;5069849;28;20039;-57
2022/10/29 00:09:01;;;;;;;8.60;2.15;;;13.30;99.90;;;;;;5069630;28;20045;-55
2022/10/29 00:11:26;;;;;;;15.70;2.85;;;13.30;99.90;;;;;;5080637;28;20071;-58
2022/10/29 00:13:55;;;;;;;11.55;2.40;;;13.30;99.90;;;;;;5089401;28;20040;-57
2022/10/29 00:16:23;;;;;;;3.55;1.45;;;13.30;99.90;;;;;;5090133;28;20374;-58
2022/10/29 00:18:48;;;;;;;14.40;2.67;;;13.20;99.90;;;;;;5089993;28;20040;-58
2022/10/29 00:21:17;;;;;;;6.53;2.70;;;13.20;99.90;;;;;;5080645;28;20033;-59
2022/10/29 00:23:42;;;;;;;8.68;1.63;;;13.20;99.90;;;;;;5069171;28;20370;-58
2022/10/29 00:26:09;;;;;;;7.13;2.78;;;13.10;99.90;;;;;;5069040;28;20454;-57
2022/10/29 00:28:34;;;;;;;9.98;3.70;;;13.10;99.90;;;;;;5075156;28;20300;-57
2022/10/29 00:31:14;;;;;;;18.20;5.00;;;13.10;99.90;;;;;;5087048;28;20129;-54
2022/10/29 00:33:40;;;;;;;14.30;3.90;;;13.10;99.90;;;;;;5087961;28;20032;-57
2022/10/29 00:36:09;;;;;;;10.85;2.85;;;13.20;99.90;;;;;;5088561;28;20079;-55
2022/10/29 00:38:35;;;;;;;8.35;2.00;;;13.20;99.90;;;;;;5101456;28;20079;-59
2022/10/29 00:41:02;;;;;;;8.52;2.65;;;13.10;99.90;;;;;;5107358;28;20035;-56
2022/10/29 00:43:28;;;;;;;8.90;3.00;;;13.10;99.90;;;;;;5102451;28;20073;-57
2022/10/29 00:46:01;;;;;;;6.97;2.47;;;13.10;99.90;;;;;;5092201;28;20442;-57
2022/10/29 00:48:30;;;;;;;12.52;3.75;;;13.10;99.90;;;;;;5090534;28;20105;-57
2022/10/29 00:50:57;;;;;;;17.60;5.53;;;13.20;99.90;;;;;;5084935;28;20214;-58
2022/10/29 00:53:27;;;;;;;12.50;4.43;;;13.20;99.90;;;;;;5077398;28;20032;-56
2022/10/29 00:55:53;;;;;;;18.08;5.35;;;13.20;99.90;;;;;;5091811;28;20044;-57
2022/10/29 00:58:19;;;;;;;12.60;5.07;;;13.30;99.90;;;;;;5106948;28;20051;-58
2022/10/29 01:00:45;;;;;;;9.88;3.42;;;13.30;99.90;;;;;;5095147;28;20089;-55
2022/10/29 01:03:10;;;;;;;7.57;1.98;;;13.30;99.90;;;;;;5083806;28;20111;-57
2022/10/29 01:05:36;;;;;;;9.40;2.53;;;13.20;99.90;;;;;;5084457;28;20044;-55
2022/10/29 01:08:02;;;;;;;10.07;3.22;;;13.10;99.90;;;;;;5072914;28;20543;-57
2022/10/29 01:10:41;;;;;;;;;;;13.10;99.90;;;;;;5071675;28;20044;-56
2022/10/29 01:13:17;;;;;;;;;;;13.00;99.90;;;;;;5072219;28;20411;-56
2022/10/29 01:16:00;;;;;;;43.22;5.45;;;13.00;99.90;;;;;;5072361;28;20003;-57
2022/10/29 01:18:41;;;;;;;6.75;3.55;;;12.90;99.90;;;;;;5091738;28;20114;-56
2022/10/29 01:21:30;;;;;;;7.07;3.72;;;12.80;99.90;;;;;;5092864;28;20040;-58
2022/10/29 01:24:16;;;;;;;5.82;3.72;;;12.80;99.90;;;;;;5089488;28;20130;-57
2022/10/29 01:26:47;;;;;;;11.27;3.72;;;12.80;99.90;;;;;;5092515;28;20036;-56
2022/10/29 01:29:53;;;;;;;8.25;4.40;;;12.80;99.90;;;;;;5092704;28;20094;-57
2022/10/29 01:32:40;;;;;;;9.18;3.92;;;12.80;99.90;;;;;;5092567;28;20487;-58
2022/10/29 01:35:23;;;;;;;6.60;2.97;;;12.80;99.90;;;;;;5090926;28;20047;-54
2022/10/29 01:38:07;;;;;;;3.65;2.40;;;12.80;99.90;;;;;;5095881;28;20039;-54
2022/10/29 01:41:02;;;;;;;5.60;3.13;;;12.80;99.90;;;;;;5102042;28;20067;-57
2022/10/29 01:43:36;;;;;;;4.85;2.70;;;12.70;99.90;;;;;;5056087;28;20041;-56
2022/10/29 01:46:15;;;;;;;6.68;2.80;;;12.70;99.90;;;;;;5105915;28;20040;-57
2022/10/29 01:48:45;;;;;;;11.13;4.13;;;12.60;99.90;;;;;;5089475;28;20209;-58
2022/10/29 01:51:20;;;;;;;16.77;4.45;;;12.70;99.90;;;;;;5103089;28;20039;-56
2022/10/29 01:53:47;;;;;;;14.32;6.35;;;12.70;99.90;;;;;;5099829;28;20531;-55
2022/10/29 01:56:12;;;;;;;11.30;5.63;;;12.80;99.90;;;;;;5112317;28;20086;-57
2022/10/29 01:58:40;;;;;;;13.30;6.63;;;12.80;99.90;;;;;;5110465;28;20063;-57
2022/10/29 02:01:32;;;;;;;97.22;6.95;;;12.80;99.90;;;;;;5110434;28;20285;-58
2022/10/29 02:04:40;;;;;;;161.73;6.72;;;12.80;99.90;;;;;;5103027;28;20106;-56
2022/10/29 02:07:34;;;;;;;6.95;1.30;;;12.60;99.90;;;;;;5088649;28;20075;-59
2022/10/29 02:10:13;;;;;;;22.55;3.22;;;12.50;99.90;;;;;;5104529;28;20051;-56
2022/10/29 02:12:50;;;;;;;30.27;3.80;;;12.40;99.90;;;;;;5092561;28;20040;-54
2022/10/29 02:15:31;;;;;;;4.55;2.30;;;12.30;99.90;;;;;;5102957;28;20068;-59
2022/10/29 02:18:07;;;;;;;254.35;10.90;;;12.40;99.90;;;;;;5110311;28;20549;-58
2022/10/29 02:20:33;;;;;;;30.83;2.33;;;12.30;99.90;;;;;;5102521;28;20519;-57
2022/10/29 02:22:59;;;;;;;61.67;3.30;;;12.30;99.90;;;;;;5100294;28;20099;-59
2022/10/29 02:25:25;;;;;;;85.90;4.97;;;12.20;99.90;;;;;;5103775;28;20044;-57
2022/10/29 02:27:51;;;;;;;4.57;1.70;;;12.10;99.90;;;;;;5095917;28;20024;-57
2022/10/29 02:30:17;;;;;;;7.03;2.53;;;12.10;99.90;;;;;;5102385;28;20104;-56
2022/10/29 02:32:42;;;;;;;3.05;1.70;;;12.10;99.90;;;;;;5091264;28;20293;-59
2022/10/29 02:35:09;;;;;;;7.38;1.15;;;12.10;99.90;;;;;;5090150;28;20036;-57
2022/10/29 02:37:34;;;;;;;;;;;12.10;99.90;;;;;;5111718;28;20560;-56
2022/10/29 02:40:00;;;;;;;7.50;3.00;;;12.10;99.90;;;;;;5104172;28;20006;-58
2022/10/29 02:42:26;;;;;;;6.60;2.88;;;12.20;99.90;;;;;;5092165;28;20044;-55
2022/10/29 02:44:51;;;;;;;6.07;2.80;;;12.10;99.90;;;;;;5094894;28;20039;-58
2022/10/29 02:47:17;;;;;;;23.70;2.03;;;12.20;99.90;;;;;;5097494;28;20207;-57
2022/10/29 02:49:42;;;;;;;117.37;6.03;;;12.20;99.90;;;;;;5081106;28;20395;-57
2022/10/29 02:52:08;;;;;;;9.52;2.50;;;12.10;99.90;;;;;;5096921;28;20046;-58
2022/10/29 02:54:33;;;;;;;19.07;2.93;;;12.00;99.90;;;;;;5100224;28;20059;-57
2022/10/29 02:56:59;;;;;;;10.00;2.70;;;11.90;99.90;;;;;;5108397;28;20304;-57
2022/10/29 02:59:24;;;;;;;4.00;2.40;;;11.80;99.90;;;;;;5091104;28;20040;-58
2022/10/29 03:01:50;;;;;;;71.73;4.77;;;11.80;99.90;;;;;;5090942;28;20347;-55
2022/10/29 03:04:16;;;;;;;93.93;7.17;;;11.80;99.90;;;;;;5087749;28;20106;-56
2022/10/29 03:06:41;;;;;;;50.40;2.75;;;11.70;99.90;;;;;;5090694;28;20374;-58
2022/10/29 03:09:07;;;;;;;2.07;1.73;;;11.70;99.90;;;;;;5086166;28;20048;-54
2022/10/29 03:11:33;;;;;;;8.73;1.70;;;11.70;99.90;;;;;;5070127;28;20291;-56
2022/10/29 03:13:58;;;;;;;20.85;1.98;;;11.70;99.90;;;;;;5070133;28;20036;-56
2022/10/29 03:16:24;;;;;;;2.85;1.52;;;11.70;99.90;;;;;;5085866;28;20040;-57
2022/10/29 03:18:49;;;;;;;63.80;3.23;;;11.80;99.90;;;;;;5090190;28;20028;-56
2022/10/29 03:21:15;;;;;;;43.15;2.40;;;11.70;99.90;;;;;;5090512;28;20127;-56
2022/10/29 03:23:40;;;;;;;16.93;2.00;;;11.70;99.90;;;;;;5090433;28;20047;-58
2022/10/29 03:26:06;;;;;;;1.53;1.23;;;11.70;99.90;;;;;;5090304;28;20040;-56
2022/10/29 03:28:31;;;;;;;1.20;0.67;;;11.60;99.90;;;;;;5090538;28;20374;-57
2022/10/29 03:30:57;;;;;;;1.73;1.00;;;11.60;99.90;;;;;;5091047;28;20039;-56
2022/10/29 03:33:27;;;;;;;1.95;0.90;;;11.70;99.90;;;;;;5110109;28;20040;-56
2022/10/29 03:35:57;;;;;;;1.50;1.40;;;11.70;99.90;;;;;;5077837;28;20116;-56
2022/10/29 03:38:23;;;;;;;0.90;0.60;;;11.70;99.90;;;;;;5109692;28;20122;-54
2022/10/29 03:40:49;;;;;;;2.67;1.10;;;11.70;99.90;;;;;;5107935;28;20564;-55
2022/10/29 03:43:14;;;;;;;4.03;1.95;;;11.70;99.90;;;;;;5091990;28;20040;-57
2022/10/29 03:45:40;;;;;;;125.83;5.13;;;11.70;99.90;;;;;;5092674;28;20459;-56
2022/10/29 03:48:05;;;;;;;12.33;4.70;;;11.70;99.90;;;;;;5103045;28;20397;-55
2022/10/29 03:50:31;;;;;;;5.78;3.47;;;11.80;99.90;;;;;;5109196;28;20433;-57
2022/10/29 03:52:56;;;;;;;18.80;6.80;;;11.80;99.90;;;;;;5095471;28;20040;-57
2022/10/29 03:55:22;;;;;;;19.73;7.63;;;11.90;99.90;;;;;;5090038;28;20282;-56
2022/10/29 03:57:48;;;;;;;25.47;9.53;;;11.90;99.90;;;;;;5095605;28;20863;-55
2022/10/29 04:00:14;;;;;;;13.57;6.18;;;11.90;99.90;;;;;;5091658;28;20047;-57
2022/10/29 04:02:39;;;;;;;31.15;12.75;;;12.00;99.90;;;;;;5101254;28;20036;-58
2022/10/29 04:05:05;;;;;;;14.10;9.70;;;12.10;99.90;;;;;;5084075;28;20394;-55
2022/10/29 04:07:31;;;;;;;27.77;10.50;;;12.10;99.90;;;;;;5087565;28;20034;-56
2022/10/29 04:09:56;;;;;;;19.35;7.25;;;12.20;99.90;;;;;;5109951;28;20039;-57
2022/10/29 04:12:22;;;;;;;26.90;5.67;;;12.20;99.90;;;;;;5085318;28;20041;-54
2022/10/29 04:14:47;;;;;;;7.03;3.42;;;12.20;99.90;;;;;;5109665;28;20031;-57
2022/10/29 04:17:13;;;;;;;84.82;8.07;;;12.10;99.90;;;;;;5101880;28;20040;-56
2022/10/29 04:19:39;;;;;;;162.75;10.60;;;12.10;99.90;;;;;;5081078;28;20032;-55
2022/10/29 04:22:05;;;;;;;97.75;5.93;;;12.10;99.90;;;;;;5110494;28;20071;-56
2022/10/29 04:24:30;;;;;;;236.93;12.23;;;12.00;99.90;;;;;;5095173;28;20182;-58
2022/10/29 04:26:56;;;;;;;14.47;3.30;;;11.90;99.90;;;;;;5096190;28;20088;-55
2022/10/29 04:29:22;;;;;;;3.17;1.88;;;11.90;99.90;;;;;;5108707;28;20091;-56
2022/10/29 04:31:47;;;;;;;4.95;2.90;;;11.80;99.90;;;;;;5096293;28;20044;-58
2022/10/29 04:34:13;;;;;;;4.32;3.65;;;11.80;99.90;;;;;;5105230;28;20516;-58
2022/10/29 04:36:39;;;;;;;5.38;3.95;;;11.80;99.90;;;;;;5113798;28;20556;-53
2022/10/29 04:39:04;;;;;;;53.85;16.58;;;11.80;99.90;;;;;;5100608;28;20040;-57
2022/10/29 04:41:30;;;;;;;48.78;12.40;;;11.90;99.90;;;;;;5090376;28;20043;-57
2022/10/29 04:43:55;;;;;;;17.73;12.40;;;11.90;99.90;;;;;;5094046;28;20512;-58
2022/10/29 04:46:21;;;;;;;33.17;13.97;;;12.00;99.90;;;;;;5094097;28;20073;-56
2022/10/29 04:48:46;;;;;;;22.27;12.23;;;12.10;99.90;;;;;;5108110;28;20036;-58
2022/10/29 04:51:19;;;;;;;20.33;11.57;;;12.20;99.90;;;;;;5109274;28;20285;-57
2022/10/29 04:53:45;;;;;;;22.25;10.77;;;12.20;99.90;;;;;;5109237;28;20023;-56
2022/10/29 04:56:10;;;;;;;17.73;9.63;;;12.20;99.90;;;;;;5113218;28;20092;-55
2022/10/29 04:58:36;;;;;;;80.27;13.20;;;12.20;99.90;;;;;;5100886;28;20040;-57
2022/10/29 05:01:03;;;;;;;287.17;20.67;;;12.20;99.90;;;;;;5092511;28;20501;-55
2022/10/29 05:03:30;;;;;;;247.48;15.75;;;12.20;99.90;;;;;;5087181;28;20037;-56
2022/10/29 05:05:56;;;;;;;;;;;12.20;99.90;;;;;;5073170;28;20072;-57
2022/10/29 05:08:21;;;;;;;52.80;8.70;;;12.10;99.90;;;;;;5072750;28;20400;-56
2022/10/29 05:10:47;;;;;;;183.65;11.55;;;12.10;99.90;;;;;;5073556;28;20089;-56
2022/10/29 05:13:13;;;;;;;258.13;14.48;;;12.10;99.90;;;;;;5072573;28;20078;-57
2022/10/29 05:15:39;;;;;;;21.58;7.60;;;12.00;99.90;;;;;;5078122;28;20032;-56
2022/10/29 05:18:05;;;;;;;142.80;11.48;;;12.00;99.90;;;;;;5092845;28;20038;-58
2022/10/29 05:20:30;;;;;;;;;;;12.00;99.90;;;;;;5082521;28;20044;-57
2022/10/29 05:23:05;;;;;;;74.38;10.05;;;11.90;99.90;;;;;;5092079;28;19965;-54
2022/10/29 05:25:32;;;;;;;9.98;6.05;;;12.00;99.90;;;;;;5092798;28;20111;-58
2022/10/29 05:28:01;;;;;;;12.02;6.65;;;12.00;99.90;;;;;;5093614;28;20051;-57
2022/10/29 05:30:31;;;;;;;50.60;8.18;;;12.00;99.90;;;;;;5105674;28;20035;-57
2022/10/29 05:32:56;;;;;;;12.80;6.40;;;12.00;99.90;;;;;;5071376;28;20405;-58
2022/10/29 05:35:22;;;;;;;34.13;6.70;;;12.00;99.90;;;;;;5112009;28;20044;-58
2022/10/29 05:37:54;;;;;;;41.73;7.10;;;12.00;99.90;;;;;;5110919;28;20324;-56
2022/10/29 05:40:21;;;;;;;100.20;9.02;;;12.00;99.90;;;;;;5093919;28;20048;-57
2022/10/29 05:42:47;;;;;;;64.30;10.65;;;12.00;99.90;;;;;;5104535;28;20055;-56
2022/10/29 05:45:13;;;;;;;43.22;8.38;;;12.00;99.90;;;;;;5101654;28;20056;-54
2022/10/29 05:47:38;;;;;;;15.70;8.13;;;12.00;99.90;;;;;;5092495;28;20032;-57
2022/10/29 05:50:04;;;;;;;11.00;7.83;;;12.00;99.90;;;;;;5098196;28;20076;-56
2022/10/29 05:52:30;;;;;;;12.23;8.35;;;12.00;99.90;;;;;;5096972;28;20040;-56
2022/10/29 05:54:55;;;;;;;15.97;8.27;;;12.00;99.90;;;;;;5092565;28;20028;-57
2022/10/29 05:57:21;;;;;;;15.67;8.70;;;12.10;99.90;;;;;;5091496;28;20040;-57
2022/10/29 05:59:46;;;;;;;17.40;10.68;;;12.10;99.90;;;;;;5098640;28;20044;-58
2022/10/29 06:02:12;;;;;;;27.63;10.10;;;12.10;99.90;;;;;;5099988;28;20043;-57
2022/10/29 06:04:37;;;;;;;11.90;7.07;;;12.10;99.90;;;;;;5094586;28;20300;-56
2022/10/29 06:07:03;;;;;;;12.40;7.27;;;12.10;99.90;;;;;;5091448;28;20400;-57
2022/10/29 06:09:29;;;;;;;12.35;8.02;;;12.10;99.90;;;;;;5091834;28;20404;-53
2022/10/29 06:11:54;;;;;;;13.10;7.18;;;12.10;99.90;;;;;;5093501;28;20050;-57
2022/10/29 06:14:20;;;;;;;14.55;7.30;;;12.10;99.90;;;;;;5095378;28;20047;-54
2022/10/29 06:16:45;;;;;;;10.68;7.88;;;12.10;99.90;;;;;;5094202;28;20117;-58
2022/10/29 06:19:11;;;;;;;16.97;7.97;;;12.10;99.90;;;;;;5091489;28;20040;-57
2022/10/29 06:21:37;;;;;;;15.95;9.18;;;12.10;99.90;;;;;;5090568;28;20024;-56
2022/10/29 06:24:03;;;;;;;17.50;9.93;;;12.10;99.90;;;;;;5091018;28;20067;-54
2022/10/29 06:26:28;;;;;;;24.05;9.77;;;12.10;99.90;;;;;;5096091;28;20516;-55
2022/10/29 06:28:54;;;;;;;14.87;8.43;;;12.10;99.90;;;;;;5098628;28;20036;-55
2022/10/29 06:31:19;;;;;;;11.93;8.33;;;12.00;99.90;;;;;;5097248;28;20372;-57
2022/10/29 06:33:45;;;;;;;19.58;9.63;;;12.00;99.90;;;;;;5070642;28;20098;-57
2022/10/29 06:36:10;;;;;;;14.37;8.77;;;12.10;99.90;;;;;;5090399;28;20400;-57
2022/10/29 06:38:36;;;;;;;20.93;10.27;;;12.10;99.90;;;;;;5089928;28;20118;-56
2022/10/29 06:41:01;;;;;;;23.93;9.87;;;12.10;99.90;;;;;;5093007;28;20067;-54
2022/10/29 06:43:27;;;;;;;13.87;8.63;;;12.10;99.90;;;;;;5091426;28;20301;-55
2022/10/29 06:45:52;;;;;;;21.90;9.13;;;12.10;99.90;;;;;;5091698;28;20040;-56
2022/10/29 06:48:18;;;;;;;22.37;10.20;;;12.10;99.90;;;;;;5090181;28;20115;-58
2022/10/29 06:50:43;;;;;;;23.63;10.63;;;12.10;99.90;;;;;;5091979;28;20294;-55
2022/10/29 06:53:12;;;;;;;28.83;12.40;;;12.10;99.90;;;;;;5073456;28;20047;-56
2022/10/29 06:55:38;;;;;;;25.40;11.30;;;12.10;99.90;;;;;;5079792;28;20278;-55
2022/10/29 06:58:10;;;;;;;132.32;18.33;;;12.10;99.90;;;;;;5091035;28;20085;-54
2022/10/29 07:00:36;;;;;;;35.83;11.13;;;12.20;99.90;;;;;;5091021;28;20096;-55
2022/10/29 07:03:06;;;;;;;29.17;9.05;;;12.20;99.90;;;;;;5089603;28;20104;-54
2022/10/29 07:05:32;;;;;;;24.92;9.45;;;12.30;99.90;;;;;;5091719;28;20043;-57
2022/10/29 07:07:59;;;;;;;;;;;12.40;99.90;;;;;;5090906;28;20036;-56
2022/10/29 07:10:27;;;;;;;13.80;8.70;;;12.50;99.90;;;;;;5091930;28;19935;-57
2022/10/29 07:12:53;;;;;;;18.48;10.18;;;12.50;99.90;;;;;;5081390;28;20033;-57
2022/10/29 07:15:18;;;;;;;16.67;10.23;;;12.50;99.90;;;;;;5072712;28;20524;-54
2022/10/29 07:17:55;;;;;;;17.73;9.18;;;12.60;99.90;;;;;;5110753;28;20657;-53
2022/10/29 07:20:20;;;;;;;19.40;10.43;;;12.60;99.90;;;;;;5110669;28;20050;-55
2022/10/29 07:22:46;;;;;;;22.05;9.23;;;12.70;99.90;;;;;;5102336;28;20031;-53
2022/10/29 07:25:12;;;;;;;15.50;8.48;;;12.70;99.90;;;;;;5090421;28;20047;-56
2022/10/29 07:27:38;;;;;;;14.05;8.88;;;12.70;99.90;;;;;;5093695;28;20044;-52
2022/10/29 07:30:04;;;;;;;16.50;10.27;;;12.70;99.90;;;;;;5090497;28;20044;-55
2022/10/29 07:32:29;;;;;;;19.33;9.75;;;12.80;99.90;;;;;;5089431;28;20382;-55
2022/10/29 07:34:55;;;;;;;18.80;9.40;;;12.80;99.90;;;;;;5090263;28;20127;-54
2022/10/29 07:37:20;;;;;;;23.87;12.03;;;12.90;99.90;;;;;;5089274;28;20398;-53
2022/10/29 07:39:46;;;;;;;19.87;12.77;;;13.00;99.90;;;;;;5089912;28;20504;-50
2022/10/29 07:42:11;;;;;;;22.07;12.83;;;12.90;99.90;;;;;;5071931;28;20040;-54
2022/10/29 07:44:37;;;;;;;19.77;10.60;;;13.00;99.90;;;;;;5088329;28;20290;-53
2022/10/29 07:47:05;;;;;;;24.73;10.60;;;13.00;99.90;;;;;;5090329;28;20036;-52
2022/10/29 07:49:31;;;;;;;27.63;13.98;;;13.00;99.90;;;;;;5107719;28;20046;-54
2022/10/29 07:51:56;;;;;;;28.57;15.67;;;13.00;99.90;;;;;;5110252;28;20478;-50
2022/10/29 07:54:22;;;;;;;27.27;18.33;;;13.10;99.90;;;;;;5072670;28;20122;-54
2022/10/29 07:56:51;;;;;;;40.65;20.45;;;13.10;99.90;;;;;;5104685;28;20727;-51
2022/10/29 07:59:18;;;;;;;49.47;21.50;;;13.10;99.90;;;;;;5095497;28;20046;-51
2022/10/29 08:01:43;;;;;;;33.38;20.15;;;13.20;99.90;;;;;;5112805;28;20039;-51
2022/10/29 08:04:09;;;;;;;40.50;22.60;;;13.20;99.90;;;;;;5099070;28;20116;-51
2022/10/29 08:06:35;;;;;;;35.03;20.17;;;13.30;99.90;;;;;;5079684;28;20068;-51
2022/10/29 08:09:01;;;;;;;34.97;21.90;;;13.40;99.90;;;;;;5082895;28;20028;-54
2022/10/29 08:11:26;;;;;;;38.80;22.73;;;13.50;99.90;;;;;;5092654;28;20783;-51
2022/10/29 08:13:52;;;;;;;34.00;20.75;;;13.60;99.90;;;;;;5087930;28;20359;-50
2022/10/29 08:16:17;;;;;;;41.63;22.23;;;13.70;99.90;;;;;;5073650;28;20032;-52
2022/10/29 08:18:43;;;;;;;37.40;22.10;;;13.80;99.90;;;;;;5080266;28;20844;-52
2022/10/29 08:21:08;;;;;;;39.83;22.52;;;13.90;99.90;;;;;;5086182;28;20115;-52
2022/10/29 08:23:34;;;;;;;37.28;19.83;;;14.00;99.90;;;;;;5076992;28;20031;-51
2022/10/29 08:26:00;;;;;;;39.87;21.63;;;14.10;99.90;;;;;;5087547;28;20032;-50
2022/10/29 08:28:25;;;;;;;38.30;21.45;;;14.10;99.90;;;;;;5113930;28;20387;-55
2022/10/29 08:30:51;;;;;;;31.35;21.15;;;14.20;99.90;;;;;;5106972;28;20571;-53
2022/10/29 08:33:17;;;;;;;32.72;21.17;;;14.20;99.90;;;;;;5093253;28;20059;-52
2022/10/29 08:35:42;;;;;;;39.65;22.20;;;14.20;99.90;;;;;;5090174;28;20174;-51
2022/10/29 08:38:08;;;;;;;36.70;21.23;;;14.30;99.90;;;;;;5073344;28;20041;-52
2022/10/29 08:40:52;;;;;;;43.72;22.10;;;14.30;99.90;;;;;;5079769;28;20090;-52
2022/10/29 08:43:27;;;;;;;40.85;22.27;;;14.30;99.90;;;;;;5073909;28;20056;-55
2022/10/29 08:45:54;;;;;;;38.58;20.75;;;14.40;99.90;;;;;;5076205;28;20036;-53
2022/10/29 08:48:37;;;;;;;38.88;21.88;;;14.50;99.90;;;;;;5073570;28;20414;-51
2022/10/29 08:51:24;;;;;;;37.58;22.00;;;14.50;99.90;;;;;;5090858;28;20051;-52
2022/10/29 08:53:53;;;;;;;41.08;23.13;;;14.60;99.90;;;;;;5076756;28;20046;-53
2022/10/29 08:56:24;;;;;;;39.85;22.70;;;14.60;99.90;;;;;;5093132;28;20044;-53
2022/10/29 08:59:30;;;;;;;39.28;24.33;;;14.70;99.90;;;;;;5092987;28;20052;-53
2022/10/29 09:01:55;;;;;;;41.38;23.38;;;14.70;99.90;;;;;;4998353;28;20076;-56
2022/10/29 09:04:35;;;;;;;47.28;24.77;;;14.80;99.90;;;;;;5004490;28;20078;-54
2022/10/29 09:07:33;;;;;;;40.28;24.00;;;14.80;99.90;;;;;;4995278;28;20042;-53
2022/10/29 09:10:09;;;;;;;39.67;22.75;;;15.00;99.90;;;;;;4993581;28;20415;-53
2022/10/29 09:12:51;;;;;;;38.53;22.77;;;15.10;99.90;;;;;;5004430;28;20153;-55
2022/10/29 09:15:30;;;;;;;38.42;23.75;;;15.10;99.90;;;;;;4990072;28;20081;-52
2022/10/29 09:18:11;;;;;;;43.53;24.05;;;15.20;99.90;;;;;;5006229;28;20080;-55
2022/10/29 09:20:57;;;;;;;28.52;22.92;;;15.30;99.90;;;;;;5002489;28;20054;-56
2022/10/29 09:23:25;;;;;;;35.47;21.50;;;15.50;99.90;;;;;;4989657;28;20054;-55
2022/10/29 09:25:59;;;;;;;33.65;20.10;;;15.60;99.90;;;;;;4974154;28;20113;-55
2022/10/29 09:28:39;;;;;;;30.30;19.67;;;15.70;99.90;;;;;;4993080;28;20046;-54
2022/10/29 09:31:33;;;;;;;43.85;22.40;;;15.90;99.90;;;;;;5009512;28;20108;-52
2022/10/29 09:34:09;;;;;;;39.92;20.60;;;16.10;99.90;;;;;;4999963;28;20113;-54
2022/10/29 09:36:35;;;;;;;30.73;18.83;;;16.40;99.90;;;;;;5057876;28;20793;-53
2022/10/29 09:39:08;;;;;;;30.38;18.90;;;16.50;99.90;;;;;;5072259;28;20283;-52
2022/10/29 09:41:34;;;;;;;31.17;18.35;;;16.50;99.90;;;;;;5079025;28;20044;-55
2022/10/29 09:44:11;;;;;;;34.97;18.88;;;16.60;99.90;;;;;;5091989;28;20094;-55
2022/10/29 09:46:46;;;;;;;;;;;16.70;99.90;;;;;;5082306;28;20043;-55
2022/10/29 09:49:31;;;;;;;27.05;16.20;;;16.80;99.90;;;;;;5072023;28;20301;-55
2022/10/29 09:52:05;;;;;;;24.05;16.50;;;17.00;99.90;;;;;;5079181;28;20576;-52
2022/10/29 09:54:31;;;;;;;31.10;17.23;;;17.00;99.90;;;;;;5086433;28;20031;-53
2022/10/29 09:56:59;;;;;;;29.88;17.55;;;17.10;99.90;;;;;;5082461;28;20367;-57
2022/10/29 10:00:00;;;;;;;31.02;17.45;;;17.10;99.90;;;;;;5086125;28;20043;-54
2022/10/29 10:02:36;;;;;;;27.92;15.98;;;17.10;99.90;;;;;;5062602;28;20108;-56
2022/10/29 10:05:11;;;;;;;33.00;17.17;;;17.10;99.90;;;;;;5089280;28;20036;-56
2022/10/29 10:07:37;;;;;;;38.58;19.33;;;17.00;99.90;;;;;;5090377;28;20309;-56
2022/10/29 10:10:05;;;;;;;34.38;17.60;;;17.00;99.90;;;;;;5091801;28;20082;-57
2022/10/29 10:12:36;;;;;;;30.23;17.42;;;17.00;99.90;;;;;;5085760;28;20120;-56
2022/10/29 10:15:15;;;;;;;33.00;17.98;;;17.00;99.90;;;;;;5070674;28;20051;-53
2022/10/29 10:18:04;;;;;;;36.67;17.20;;;17.10;99.90;;;;;;5071462;28;20079;-54
2022/10/29 10:20:36;;;;;;;27.15;16.02;;;17.10;99.90;;;;;;5070092;28;20524;-56
2022/10/29 10:23:25;;;;;;;28.40;16.73;;;17.10;99.90;;;;;;5076304;28;20138;-58
2022/10/29 10:25:53;;;;;;;31.73;16.17;;;17.10;99.90;;;;;;5091161;28;20090;-56
2022/10/29 10:28:30;;;;;;;33.17;17.73;;;17.20;99.90;;;;;;5091385;28;20119;-57
2022/10/29 10:31:15;;;;;;;32.28;18.60;;;17.30;99.90;;;;;;5091269;28;20057;-57
2022/10/29 10:33:50;;;;;;;29.13;14.73;;;17.40;99.90;;;;;;5089182;28;20542;-55
2022/10/29 10:36:19;;;;;;;30.30;18.23;;;17.50;99.90;;;;;;5084274;28;20283;-57
2022/10/29 10:38:48;;;;;;;30.73;18.27;;;17.60;99.90;;;;;;5071051;28;20082;-57
2022/10/29 10:41:20;;;;;;;38.05;18.25;;;17.60;99.90;;;;;;5070640;28;20117;-56
2022/10/29 10:43:46;;;;;;;35.78;19.05;;;17.60;99.90;;;;;;5078598;28;20493;-57
2022/10/29 10:46:33;;;;;;;33.78;16.95;;;17.60;99.90;;;;;;5091038;28;20063;-57
2022/10/29 10:49:04;;;;;;;;;;;17.70;99.90;;;;;;5089394;28;20493;-57
2022/10/29 10:51:32;;;;;;;32.90;17.88;;;17.70;99.90;;;;;;5090750;28;20395;-58
2022/10/29 10:54:00;;;;;;;27.17;18.23;;;17.80;99.90;;;;;;5083416;28;20089;-53
2022/10/29 10:56:26;;;;;;;31.17;16.30;;;17.90;99.90;;;;;;5070526;28;20044;-53
2022/10/29 10:59:04;;;;;;;30.67;17.65;;;17.90;99.90;;;;;;5070634;28;20055;-55
2022/10/29 11:01:43;;;;;;;38.30;17.30;;;17.90;99.90;;;;;;5083850;28;20421;-56
2022/10/29 11:04:32;;;;;;;34.33;17.45;;;17.90;99.90;;;;;;5095143;28;20039;-54
2022/10/29 11:07:02;;;;;;;29.30;17.48;;;17.90;99.90;;;;;;5091513;28;20189;-53
2022/10/29 11:09:35;;;;;;;33.80;20.08;;;17.80;99.90;;;;;;5103110;28;20466;-55
2022/10/29 11:12:04;;;;;;;33.30;16.60;;;17.80;99.90;;;;;;5100732;28;20407;-56
2022/10/29 11:14:52;;;;;;;29.58;16.90;;;17.90;99.90;;;;;;5103307;28;20032;-56
2022/10/29 11:17:29;;;;;;;33.40;17.60;;;17.90;99.90;;;;;;5086778;28;20036;-54
2022/10/29 11:20:00;;;;;;;28.23;17.48;;;17.90;99.90;;;;;;5107664;28;20054;-52
2022/10/29 11:22:37;;;;;;;33.63;17.35;;;17.90;99.90;;;;;;5100561;28;20036;-55
2022/10/29 11:25:47;;;;;;;28.48;16.70;;;17.90;99.90;;;;;;5103069;28;20584;-55
2022/10/29 11:28:39;;;;;;;36.10;17.85;;;18.00;99.90;;;;;;5089820;28;20032;-56
2022/10/29 11:31:18;;;;;;;36.85;17.73;;;18.00;99.90;;;;;;5078958;28;20071;-55
2022/10/29 11:33:57;;;;;;;32.30;18.60;;;18.00;99.90;;;;;;5099962;28;20457;-55
2022/10/29 11:36:26;;;;;;;31.17;16.90;;;18.00;99.90;;;;;;5079931;28;20081;-56
2022/10/29 11:38:58;;;;;;;26.08;17.90;;;18.00;99.90;;;;;;5070011;28;20041;-56
2022/10/29 11:41:46;;;;;;;33.20;18.33;;;18.00;99.90;;;;;;5072439;28;20653;-57
2022/10/29 11:44:14;;;;;;;28.97;18.27;;;18.00;99.90;;;;;;5069698;28;20115;-55
2022/10/29 11:47:08;;;;;;;35.08;18.48;;;18.10;99.90;;;;;;5072393;28;20314;-57
2022/10/29 11:50:10;;;;;;;30.50;17.00;;;18.10;99.90;;;;;;5086283;28;20535;-53
2022/10/29 11:53:21;;;;;;;37.42;18.45;;;18.10;99.90;;;;;;5106311;28;20052;-56
2022/10/29 11:56:11;;;;;;;37.60;19.05;;;18.10;99.90;;;;;;5101516;28;20044;-52
2022/10/29 11:58:47;;;;;;;35.05;18.98;;;18.20;99.90;;;;;;5090444;28;20112;-56
2022/10/29 12:01:24;;;;;;;39.53;18.77;;;18.30;99.90;;;;;;5089851;28;20059;-56
2022/10/29 12:04:01;;;;;;;38.85;20.40;;;18.30;99.90;;;;;;5089400;28;20040;-53
2022/10/29 12:06:29;;;;;;;41.97;19.30;;;18.30;99.90;;;;;;5089940;28;20051;-54
2022/10/29 12:09:01;;;;;;;34.08;19.90;;;18.40;99.90;;;;;;5090304;28;20089;-56
2022/10/29 12:11:38;;;;;;;39.63;19.65;;;18.40;99.90;;;;;;5090012;28;20390;-57
2022/10/29 12:14:20;;;;;;;32.85;18.80;;;18.50;99.90;;;;;;5093947;28;20035;-57
2022/10/29 12:16:55;;;;;;;39.17;18.95;;;18.50;99.90;;;;;;5090001;28;20444;-55
2022/10/29 12:19:48;;;;;;;37.00;19.83;;;18.50;99.90;;;;;;5087329;28;20074;-56
2022/10/29 12:22:39;;;;;;;31.80;18.83;;;18.60;99.90;;;;;;5090427;28;20043;-54
2022/10/29 12:25:43;;;;;;;34.80;17.35;;;18.80;99.90;;;;;;5089282;28;20063;-54
2022/10/29 12:28:18;;;;;;;35.00;17.98;;;18.90;99.90;;;;;;5089459;28;20085;-61
2022/10/29 12:30:58;;;;;;;32.92;17.08;;;19.00;99.90;;;;;;5089891;28;20047;-62
2022/10/29 12:33:32;;;;;;;33.33;17.02;;;19.00;99.90;;;;;;5089732;28;20173;-61
2022/10/29 12:36:14;;;;;;;31.13;16.90;;;19.10;99.90;;;;;;5089833;28;20425;-62
2022/10/29 12:38:54;;;;;;;32.72;17.27;;;19.10;99.90;;;;;;5089197;28;20142;-61
2022/10/29 12:41:26;;;;;;;32.58;17.15;;;19.10;99.90;;;;;;5089194;28;20039;-62
2022/10/29 12:44:02;;;;;;;25.25;16.77;;;19.10;99.90;;;;;;5091096;28;20376;-61
2022/10/29 12:46:58;;;;;;;34.85;17.35;;;19.10;99.90;;;;;;5093697;28;20043;-61
2022/10/29 12:49:54;;;;;;;33.50;16.73;;;19.10;99.90;;;;;;5089458;28;20420;-61
2022/10/29 12:52:34;;;;;;;30.20;17.30;;;19.10;99.90;;;;;;5092613;28;20040;-62
2022/10/29 12:55:01;;;;;;;32.63;17.77;;;19.20;99.90;;;;;;5092635;28;20063;-62
2022/10/29 12:57:32;;;;;;;29.08;15.80;;;19.30;99.90;;;;;;5091403;28;20513;-62